X  Close Metar Aviation Weather Data     KSJC Norman Y. Mineta San Jose International Airport
Temperature
55°F Temperature
50°F Dewpoint
82% Humidity



Wind
5 MPH
8 KM/H
2 M/S
4 KTS



350°
North
Current Conditions

Clear Clear
Pressure 1019.62 (hPa) - 30.11 (inHg)
Visibility 9.9 (mile) - 16 (km)
Airport
Airport-code KSJC

Location: Norman Y. Mineta San Jose International Airport
Distance: 14 (mi)

Metar:
KSJC 151053Z AUTO 35004KT 10SM CLR 13/10 A3011 RMK AO2 SLP194 T01330100

Time: 15-06-2021 3:53 am PDT